Time;durP1;ratioP1;P1;durP2;ratioP2;P2;SDS_P1;SDS_P2;PMS_P1;PMS_P2;Temp;Humidity;BMP_temperature;BMP_pressure;BME280_temperature;BME280_humidity;BME280_pressure;Samples;Min_cycle;Max_cycle;Signal;HPM_P1;HPM_P2
2022/05/30 00:00:26;;;;;;;9.15;2.50;;;;;;;5.43;93.93;101574.19;5051861;28;20112;-78
2022/05/30 00:02:52;;;;;;;6.88;1.70;;;;;;;5.45;94.97;101569.69;5051760;28;20407;-78
2022/05/30 00:05:20;;;;;;;3.88;2.00;;;;;;;5.45;96.12;101567.88;5051813;28;20093;-78
2022/05/30 00:07:45;;;;;;;4.30;1.63;;;;;;;5.46;96.42;101566.09;5051618;28;20029;-78
2022/05/30 00:10:12;;;;;;;6.18;1.70;;;;;;;5.50;96.42;101567.63;5051476;28;20045;-79
2022/05/30 00:12:38;;;;;;;7.70;2.00;;;;;;;5.57;96.95;101558.41;5051442;28;20159;-82
2022/05/30 00:15:05;;;;;;;5.85;1.77;;;;;;;5.67;97.50;101553.44;5051316;28;20476;-78
2022/05/30 00:17:30;;;;;;;10.90;1.83;;;;;;;5.76;98.10;101555.56;5049846;28;20033;-78
2022/05/30 00:19:56;;;;;;;4.82;1.63;;;;;;;5.85;99.00;101551.50;5049967;28;20397;-78
2022/05/30 00:22:22;;;;;;;10.10;2.33;;;;;;;5.94;99.60;101547.44;5051151;28;20120;-78
2022/05/30 00:24:49;;;;;;;11.07;2.33;;;;;;;6.03;100.00;101543.44;5049799;28;20037;-77
2022/05/30 00:27:15;;;;;;;11.77;2.20;;;;;;;6.10;100.00;101550.06;5033351;28;20120;-78
2022/05/30 00:29:41;;;;;;;8.30;2.25;;;;;;;6.17;100.00;101548.75;5051163;28;20150;-81
2022/05/30 00:32:07;;;;;;;9.65;2.42;;;;;;;6.24;100.00;101547.44;5051902;28;20051;-78
2022/05/30 00:34:33;;;;;;;4.45;1.70;;;;;;;6.32;100.00;101546.97;5051510;28;20056;-77
2022/05/30 00:37:00;;;;;;;9.43;2.20;;;;;;;6.38;100.00;101545.75;5051188;28;20048;-77
2022/05/30 00:39:25;;;;;;;7.82;1.88;;;;;;;6.42;100.00;101542.81;5052008;28;20094;-78
2022/05/30 00:41:51;;;;;;;7.25;1.95;;;;;;;6.47;100.00;101537.25;5050450;28;20084;-78
2022/05/30 00:44:16;;;;;;;9.35;2.05;;;;;;;6.49;99.97;101538.00;5049977;28;20036;-78
2022/05/30 00:46:41;;;;;;;10.13;1.80;;;;;;;6.51;99.63;101536.97;5054714;28;20029;-81
2022/05/30 00:49:11;;;;;;;6.43;1.90;;;;;;;6.53;98.95;101534.22;5054855;28;20032;-77
2022/05/30 00:51:41;;;;;;;7.47;1.90;;;;;;;6.55;98.92;101537.59;5055043;28;20036;-78
2022/05/30 00:54:10;;;;;;;9.57;1.70;;;;;;;6.60;98.65;101542.59;5054845;28;20029;-78
2022/05/30 00:56:44;;;;;;;10.70;1.75;;;;;;;6.61;98.47;101536.38;5054548;28;20199;-78
2022/05/30 00:59:10;;;;;;;7.03;1.45;;;;;;;6.64;98.26;101534.41;5054678;28;20041;-79
2022/05/30 01:01:36;;;;;;;5.57;1.48;;;;;;;6.68;98.23;101533.25;5054746;28;20481;-79
2022/05/30 01:06:54;;;;;;;4.70;1.58;;;;;;;6.77;97.72;101539.75;5054864;28;20059;-78
2022/05/30 01:09:27;;;;;;;5.32;1.60;;;;;;;6.81;97.60;101543.06;5054210;28;20476;-78
2022/05/30 01:11:55;;;;;;;4.90;1.80;;;;;;;6.84;97.46;101532.28;5054083;28;20025;-78
2022/05/30 01:14:22;;;;;;;4.70;1.60;;;;;;;6.88;96.76;101531.13;5054299;28;20115;-78
2022/05/30 01:16:48;;;;;;;2.63;1.40;;;;;;;6.90;96.28;101534.53;5054524;28;20067;-78
2022/05/30 01:19:20;;;;;;;6.53;1.60;;;;;;;6.92;95.65;101535.28;5054602;28;20088;-78
2022/05/30 01:22:01;;;;;;;5.93;1.60;;;;;;;6.96;95.42;101534.16;5054158;28;20069;-82
2022/05/30 01:24:38;;;;;;;5.75;1.33;;;;;;;6.97;94.73;101535.84;5052868;28;20033;-78
2022/05/30 01:27:18;;;;;;;4.32;1.30;;;;;;;6.99;93.95;101531.31;5053617;28;20029;-78
2022/05/30 01:29:57;;;;;;;3.73;1.07;;;;;;;7.00;93.73;101525.06;5053069;28;20040;-79
2022/05/30 01:32:23;;;;;;;6.30;1.30;;;;;;;7.01;93.25;101532.03;5053038;28;20419;-78
2022/05/30 01:34:49;;;;;;;7.55;1.45;;;;;;;7.03;92.66;101529.28;5053683;28;20385;-82
2022/05/30 01:37:15;;;;;;;6.88;1.50;;;;;;;7.03;92.40;101524.88;5054224;28;20033;-78
2022/05/30 01:39:40;;;;;;;4.15;1.23;;;;;;;7.04;92.13;101515.97;5053224;28;20029;-78
2022/05/30 01:42:06;;;;;;;5.82;1.33;;;;;;;7.04;91.81;101515.97;5053992;28;20151;-77
2022/05/30 01:44:31;;;;;;;3.08;1.30;;;;;;;7.03;91.74;101514.28;5053692;28;20534;-77
2022/05/30 01:46:57;;;;;;;4.82;1.40;;;;;;;7.05;92.07;101514.19;5054006;28;20096;-77
2022/05/30 01:49:22;;;;;;;8.20;1.90;;;;;;;7.03;92.08;101516.06;5054247;28;20044;-78
2022/05/30 01:51:48;;;;;;;2.58;1.20;;;;;;;7.03;92.03;101513.41;5053457;28;20504;-78
2022/05/30 01:54:13;;;;;;;6.03;2.00;;;;;;;7.02;92.07;101512.56;5053072;28;20055;-78
2022/05/30 01:56:38;;;;;;;7.63;1.73;;;;;;;7.04;92.31;101515.97;5053626;28;20044;-78
2022/05/30 01:59:04;;;;;;;5.10;1.50;;;;;;;7.04;92.56;101515.97;5053800;28;20033;-78
2022/05/30 02:01:30;;;;;;;3.08;1.13;;;;;;;7.03;92.41;101509.00;5053356;28;20041;-78
2022/05/30 02:03:56;;;;;;;2.42;1.08;;;;;;;7.04;92.28;101500.09;5053737;28;20461;-79
2022/05/30 02:06:25;;;;;;;3.83;1.25;;;;;;;7.05;92.57;101512.38;5051973;28;20469;-77
2022/05/30 02:08:50;;;;;;;4.32;1.67;;;;;;;7.06;92.74;101507.91;5053255;28;20216;-78
2022/05/30 02:11:17;;;;;;;5.75;1.80;;;;;;;7.07;92.75;101505.16;5053463;28;20459;-78
2022/05/30 02:13:43;;;;;;;6.93;1.70;;;;;;;7.09;92.83;101509.53;5052080;28;20146;-79
2022/05/30 02:18:59;;;;;;;5.32;1.83;;;;;;;7.11;93.04;101507.66;5053183;28;20397;-81
2022/05/30 02:21:25;;;;;;;5.97;1.50;;;;;;;7.10;93.33;101508.59;5051529;28;20033;-78
2022/05/30 02:23:51;;;;;;;6.75;1.50;;;;;;;7.10;92.99;101508.59;5052636;28;20044;-78
2022/05/30 02:26:17;;;;;;;10.07;2.03;;;;;;;7.07;93.07;101507.81;5052875;28;20070;-78
2022/05/30 02:28:42;;;;;;;5.95;1.50;;;;;;;7.05;93.23;101507.09;5052672;28;20060;-77
2022/05/30 02:31:08;;;;;;;8.32;1.75;;;;;;;7.07;93.94;101509.63;5052689;28;20353;-77
2022/05/30 02:39:02;;;;;;;8.98;1.63;;;;;;;7.03;93.82;101506.34;5052953;28;20476;-77
2022/05/30 02:41:27;;;;;;;7.50;1.40;;;;;;;7.00;93.81;101500.38;5052668;28;20081;-77
2022/05/30 02:43:52;;;;;;;4.65;1.50;;;;;;;6.99;94.54;101496.06;5052530;28;20457;-76
2022/05/30 02:46:18;;;;;;;4.47;1.20;;;;;;;7.01;96.01;101499.44;5052626;28;20124;-78
2022/05/30 02:48:44;;;;;;;4.45;1.35;;;;;;;7.00;97.07;101500.38;5052362;28;20044;-77
2022/05/30 02:51:10;;;;;;;6.93;1.50;;;;;;;6.98;98.28;101494.34;5051013;28;20025;-76
2022/05/30 02:53:36;;;;;;;7.95;1.60;;;;;;;6.93;98.94;101491.16;5050897;28;20033;-76
2022/05/30 02:56:01;;;;;;;7.43;2.13;;;;;;;6.92;100.00;101487.66;5051999;28;20041;-79
2022/05/30 02:58:27;;;;;;;6.00;1.67;;;;;;;6.92;100.00;101492.94;5052778;28;20106;-77
2022/05/30 03:00:52;;;;;;;8.20;2.00;;;;;;;6.94;100.00;101495.50;5051899;28;20048;-77
2022/05/30 03:03:18;;;;;;;4.40;1.55;;;;;;;6.94;100.00;101492.84;5050867;28;20037;-76
2022/05/30 03:05:44;;;;;;;13.60;2.00;;;;;;;6.84;100.00;101498.75;5052083;28;20045;-78
2022/05/30 03:08:10;;;;;;;6.88;1.52;;;;;;;6.77;100.00;101489.50;5051569;28;20072;-78
2022/05/30 03:10:36;;;;;;;8.55;1.55;;;;;;;6.70;100.00;101494.34;5052037;28;20041;-77
2022/05/30 03:13:05;;;;;;;7.18;1.75;;;;;;;6.62;100.00;101493.13;5052291;28;20052;-84
2022/05/30 03:15:31;;;;;;;6.90;1.73;;;;;;;6.52;100.00;101488.44;5052125;28;20025;-78
2022/05/30 03:17:56;;;;;;;7.70;1.90;;;;;;;6.42;100.00;101489.09;5052255;28;20028;-78
2022/05/30 03:20:22;;;;;;;5.10;1.50;;;;;;;6.31;100.00;101493.25;5052550;28;20037;-78
2022/05/30 03:22:48;;;;;;;4.28;1.30;;;;;;;6.22;100.00;101491.19;5052406;28;20113;-78
2022/05/30 03:25:15;;;;;;;3.58;1.60;;;;;;;6.14;100.00;101493.47;5052562;28;20029;-79
2022/05/30 03:27:41;;;;;;;7.35;1.70;;;;;;;6.09;100.00;101492.88;5050399;28;20120;-78
2022/05/30 03:30:08;;;;;;;6.47;1.67;;;;;;;6.00;100.00;101487.22;5051875;28;20036;-78
2022/05/30 03:32:33;;;;;;;6.03;1.50;;;;;;;5.91;100.00;101489.53;5051701;28;20094;-77
2022/05/30 03:34:59;;;;;;;8.35;2.35;;;;;;;5.81;100.00;101484.81;5033902;28;20042;-77
2022/05/30 03:37:25;;;;;;;4.40;1.85;;;;;;;5.76;100.00;101484.25;5051620;28;20029;-78
2022/05/30 03:39:50;;;;;;;4.00;1.48;;;;;;;5.69;100.00;101485.56;5050241;28;20035;-77
2022/05/30 03:42:16;;;;;;;6.95;1.92;;;;;;;5.58;100.00;101493.25;5049979;28;20049;-78
2022/05/30 03:44:42;;;;;;;5.65;1.85;;;;;;;5.49;100.00;101494.63;5050093;28;20041;-78
2022/05/30 03:47:08;;;;;;;4.47;1.83;;;;;;;5.41;100.00;101494.25;5051782;28;20040;-79
2022/05/30 03:49:34;;;;;;;8.30;2.20;;;;;;;5.40;100.00;101505.72;5051336;28;20365;-78
2022/05/30 03:51:59;;;;;;;3.30;1.75;;;;;;;5.35;100.00;101506.00;5051997;28;20033;-78
2022/05/30 03:54:26;;;;;;;2.78;1.40;;;;;;;5.28;100.00;101496.75;5051336;28;20126;-78
2022/05/30 03:56:51;;;;;;;5.18;1.95;;;;;;;5.27;100.00;101497.69;5050113;28;20377;-78
2022/05/30 03:59:16;;;;;;;9.02;2.65;;;;;;;5.27;100.00;101498.53;5050938;28;20121;-78
2022/05/30 04:01:42;;;;;;;6.18;1.90;;;;;;;5.29;100.00;101499.28;5051374;28;20434;-78
2022/05/30 04:04:08;;;;;;;7.80;2.00;;;;;;;5.30;100.00;101494.88;5051459;28;20040;-83
2022/05/30 04:06:33;;;;;;;2.42;1.52;;;;;;;5.30;100.00;101492.25;5051395;28;20033;-79
2022/05/30 04:08:58;;;;;;;3.70;1.88;;;;;;;5.35;100.00;101491.97;5051408;28;20385;-78
2022/05/30 04:11:24;;;;;;;3.28;1.95;;;;;;;5.39;100.00;101490.84;5049891;28;20137;-78
2022/05/30 04:13:49;;;;;;;3.60;2.17;;;;;;;5.42;100.00;101491.53;5051257;28;20029;-78
2022/05/30 04:16:15;;;;;;;7.63;2.47;;;;;;;5.49;100.00;101492.00;5051134;28;20033;-78
2022/05/30 04:18:42;;;;;;;5.53;2.15;;;;;;;5.52;100.00;101491.81;5051630;28;20108;-77
2022/05/30 04:21:10;;;;;;;4.03;1.60;;;;;;;5.51;100.00;101489.25;5054374;28;20033;-77
2022/05/30 04:23:36;;;;;;;2.25;1.90;;;;;;;5.46;100.00;101478.97;5055217;28;20025;-77
2022/05/30 04:26:06;;;;;;;3.42;1.83;;;;;;;5.43;100.00;101477.41;5055639;28;20127;-77
2022/05/30 04:28:32;;;;;;;4.25;1.80;;;;;;;5.41;100.00;101476.63;5055670;28;20024;-77
2022/05/30 04:30:57;;;;;;;2.38;1.30;;;;;;;5.42;100.00;101478.31;5055164;28;20445;-77
2022/05/30 04:33:22;;;;;;;3.10;1.50;;;;;;;5.43;100.00;101479.16;5053706;28;20037;-77
2022/05/30 04:35:48;;;;;;;2.60;1.42;;;;;;;5.43;100.00;101480.03;5054215;28;20033;-77
2022/05/30 04:38:13;;;;;;;1.88;1.50;;;;;;;5.46;100.00;101484.25;5054958;28;20430;-80
2022/05/30 04:40:39;;;;;;;2.05;1.40;;;;;;;5.50;100.00;101483.16;5054848;28;20041;-78
2022/05/30 04:43:04;;;;;;;2.95;1.50;;;;;;;5.58;100.00;101483.56;5055403;28;20503;-77
2022/05/30 04:45:29;;;;;;;2.70;1.73;;;;;;;5.67;100.00;101489.22;5053542;28;20033;-77
2022/05/30 04:47:55;;;;;;;5.65;2.00;;;;;;;5.77;100.00;101490.38;5054987;28;20508;-77
2022/05/30 04:50:20;;;;;;;6.07;1.88;;;;;;;5.81;100.00;101484.81;5053579;28;20435;-76
2022/05/30 04:52:47;;;;;;;10.80;2.67;;;;;;;5.87;100.00;101488.88;5054944;28;20498;-77
2022/05/30 04:55:15;;;;;;;3.92;2.70;;;;;;;5.91;100.00;101493.03;5055184;28;20116;-77
2022/05/30 04:57:45;;;;;;;4.53;2.00;;;;;;;5.92;100.00;101488.59;5055613;28;20025;-76
2022/05/30 05:00:13;;;;;;;5.28;2.17;;;;;;;5.92;100.00;101492.06;5055149;28;20037;-77
2022/05/30 05:02:38;;;;;;;11.35;5.28;;;;;;;5.95;100.00;101480.47;5055828;28;20040;-78
2022/05/30 05:05:04;;;;;;;16.65;5.55;;;;;;;5.98;100.00;101485.59;5054294;28;20033;-78
2022/05/30 05:07:40;;;;;;;14.90;4.97;;;;;;;6.01;100.00;101485.41;5055823;28;20037;-79
2022/05/30 05:10:27;;;;;;;8.27;4.18;;;;;;;6.05;100.00;101489.59;5055903;28;20139;-77
2022/05/30 05:12:52;;;;;;;7.88;4.07;;;;;;;6.09;100.00;101491.09;5055602;28;20037;-78
2022/05/30 05:15:18;;;;;;;6.18;3.25;;;;;;;6.12;100.00;101496.19;5037408;28;20040;-84
2022/05/30 05:17:43;;;;;;;4.90;2.58;;;;;;;6.18;100.00;101489.69;5055412;28;20029;-78
2022/05/30 05:20:09;;;;;;;5.50;2.45;;;;;;;6.21;100.00;101497.44;5054985;28;20029;-77
2022/05/30 05:22:34;;;;;;;7.90;2.35;;;;;;;6.29;100.00;101502.22;5054766;28;20481;-77
2022/05/30 05:25:00;;;;;;;5.95;2.92;;;;;;;6.37;100.00;101496.47;5054347;28;20040;-77
2022/05/30 05:27:25;;;;;;;8.57;3.15;;;;;;;6.44;100.00;101500.44;5054989;28;20025;-77
2022/05/30 05:29:54;;;;;;;10.73;2.92;;;;;;;6.50;100.00;101497.41;5055180;28;20029;-77
2022/05/30 05:32:19;;;;;;;3.28;1.92;;;;;;;6.60;100.00;101500.28;5054569;28;20037;-84
2022/05/30 05:34:45;;;;;;;4.13;1.92;;;;;;;6.69;100.00;101503.22;5055224;28;20029;-77
2022/05/30 05:37:10;;;;;;;7.55;2.20;;;;;;;6.81;100.00;101498.09;5055226;28;20030;-78
2022/05/30 05:39:35;;;;;;;4.55;1.90;;;;;;;6.92;100.00;101498.25;5053853;28;20355;-78
2022/05/30 05:42:01;;;;;;;5.30;1.80;;;;;;;7.01;100.00;101500.28;5054723;28;20049;-78
2022/05/30 05:44:26;;;;;;;7.78;1.70;;;;;;;7.14;100.00;101504.81;5053913;28;20465;-78
2022/05/30 05:46:56;;;;;;;9.27;1.60;;;;;;;7.30;100.00;101499.31;5055275;28;20067;-77
2022/05/30 05:49:21;;;;;;;5.93;1.88;;;;;;;7.52;100.00;101504.03;5037284;28;20376;-84
2022/05/30 05:51:53;;;;;;;6.25;1.40;;;;;;;7.74;100.00;101504.28;5054645;28;20125;-77
2022/05/30 05:54:22;;;;;;;7.85;1.60;;;;;;;8.00;100.00;101503.44;5054760;28;20027;-77
2022/05/30 05:56:48;;;;;;;5.68;1.27;;;;;;;8.26;100.00;101504.31;5055483;28;20468;-78
2022/05/30 05:59:13;;;;;;;8.38;1.83;;;;;;;8.49;100.00;101509.81;5054853;28;20029;-77
2022/05/30 06:01:38;;;;;;;7.00;1.25;;;;;;;8.84;100.00;101507.28;5054585;28;20482;-77
2022/05/30 06:04:06;;;;;;;4.90;0.98;;;;;;;9.17;100.00;101511.91;5054656;28;20040;-76
2022/05/30 06:06:33;;;;;;;4.45;1.13;;;;;;;9.48;97.11;101509.63;5054189;28;20036;-75
2022/05/30 06:09:01;;;;;;;5.47;1.73;;;;;;;9.93;94.64;101502.72;5054246;28;20025;-78
2022/05/30 06:11:26;;;;;;;4.15;1.00;;;;;;;10.41;90.53;101508.69;5054106;28;20044;-80
2022/05/30 06:13:52;;;;;;;5.40;1.20;;;;;;;10.98;86.40;101510.44;5054039;28;20032;-80
2022/05/30 06:16:30;;;;;;;3.72;1.02;;;;;;;11.50;80.43;101513.28;5052726;28;20128;-77
2022/05/30 06:18:57;;;;;;;4.03;1.10;;;;;;;11.82;73.11;101508.72;5053898;28;20541;-78
2022/05/30 06:21:24;;;;;;;4.80;1.23;;;;;;;12.01;70.03;101501.00;5053755;28;20025;-79
2022/05/30 06:23:51;;;;;;;7.30;1.00;;;;;;;12.06;65.93;101504.97;5054053;28;20037;-77
2022/05/30 06:26:17;;;;;;;3.83;1.00;;;;;;;12.25;67.75;101504.19;5052813;28;20033;-78
2022/05/30 06:28:44;;;;;;;4.45;0.90;;;;;;;12.41;64.50;101502.88;5053130;28;20036;-78
2022/05/30 06:31:18;;;;;;;4.88;0.82;;;;;;;12.52;65.02;101506.28;5053603;28;20037;-79
2022/05/30 06:33:43;;;;;;;2.78;0.88;;;;;;;12.69;64.46;101511.97;5052299;28;20029;-78
2022/05/30 06:36:11;;;;;;;2.60;0.80;;;;;;;12.52;60.28;101500.94;5053634;28;20043;-77
2022/05/30 06:38:38;;;;;;;4.00;0.90;;;;;;;12.42;63.12;101505.41;5053734;28;20029;-79
2022/05/30 06:41:17;;;;;;;3.97;0.95;;;;;;;12.33;61.82;101511.53;5053892;28;20031;-78
2022/05/30 06:43:44;;;;;;;6.85;1.98;;;;;;;12.16;61.60;101515.66;5053763;28;20025;-77
2022/05/30 06:46:10;;;;;;;6.18;1.20;;;;;;;12.05;62.93;101513.94;5053042;28;20121;-77
2022/05/30 06:48:36;;;;;;;2.65;0.90;;;;;;;11.87;63.46;101511.00;5053170;28;20032;-78
2022/05/30 06:51:09;;;;;;;4.55;0.80;;;;;;;11.76;62.28;101521.72;5052883;28;20028;-78
2022/05/30 06:53:35;;;;;;;2.90;0.70;;;;;;;11.49;61.41;101517.75;5053231;28;20045;-79
2022/05/30 06:56:00;;;;;;;4.88;1.10;;;;;;;11.35;63.25;101520.72;5053151;28;20055;-77
2022/05/30 06:58:27;;;;;;;3.63;1.20;;;;;;;11.33;66.34;101518.19;5052958;28;20466;-76
2022/05/30 07:00:58;;;;;;;10.10;1.35;;;;;;;11.35;63.75;101518.06;5052481;28;20041;-78
2022/05/30 07:03:23;;;;;;;3.75;1.55;;;;;;;11.39;65.45;101528.34;5053035;28;20418;-75
2022/05/30 07:05:49;;;;;;;2.42;0.82;;;;;;;11.41;62.92;101526.38;5053055;28;20047;-75
2022/05/30 07:08:15;;;;;;;1.95;0.90;;;;;;;11.42;62.22;101524.56;5052835;28;20063;-78
2022/05/30 07:10:41;;;;;;;4.03;0.70;;;;;;;11.48;64.29;101524.06;5052252;28;20037;-76
2022/05/30 07:13:07;;;;;;;3.97;1.13;;;;;;;11.61;63.38;101524.72;5052157;28;20043;-78
2022/05/30 07:15:36;;;;;;;5.65;1.00;;;;;;;11.77;64.20;101526.94;5052829;28;20033;-81
2022/05/30 07:18:12;;;;;;;3.55;1.10;;;;;;;12.01;64.26;101523.19;5052918;28;20036;-77
2022/05/30 07:20:38;;;;;;;5.93;1.10;;;;;;;12.12;63.03;101532.91;5052633;28;20101;-79
2022/05/30 07:23:05;;;;;;;8.73;2.75;;;;;;;12.16;64.43;101527.19;5052688;28;20067;-79
2022/05/30 07:25:34;;;;;;;6.18;1.08;;;;;;;12.08;64.53;101539.50;5051150;28;20033;-76
2022/05/30 07:28:00;;;;;;;3.78;1.40;;;;;;;11.90;64.36;101532.06;5052948;28;20033;-76
2022/05/30 07:30:25;;;;;;;5.60;0.90;;;;;;;11.47;66.78;101541.84;5053033;28;20040;-76
2022/05/30 07:32:50;;;;;;;3.28;0.90;;;;;;;11.11;70.71;101533.28;5052434;28;20093;-76
2022/05/30 07:35:16;;;;;;;6.70;1.27;;;;;;;10.96;73.82;101542.53;5052377;28;20063;-79
2022/05/30 07:37:42;;;;;;;10.85;1.63;;;;;;;10.91;76.51;101539.38;5051733;28;20032;-80
2022/05/30 07:40:08;;;;;;;5.40;1.10;;;;;;;10.88;77.80;101539.63;5052862;28;20029;-80
2022/05/30 07:42:34;;;;;;;3.85;0.90;;;;;;;10.86;77.51;101534.41;5052183;28;20473;-80
2022/05/30 07:44:59;;;;;;;3.67;1.20;;;;;;;10.85;76.87;101540.72;5052386;28;20033;-79
2022/05/30 07:47:27;;;;;;;4.85;1.30;;;;;;;10.97;78.18;101540.69;5052574;28;20123;-75
2022/05/30 07:49:53;;;;;;;3.38;0.98;;;;;;;11.04;75.80;101539.22;5051768;28;20381;-79
2022/05/30 07:52:18;;;;;;;5.78;1.17;;;;;;;11.06;76.04;101538.13;5052496;28;20033;-80
2022/05/30 07:54:44;;;;;;;3.15;1.20;;;;;;;11.10;76.90;101531.56;5051797;28;20444;-81
2022/05/30 07:57:10;;;;;;;3.45;1.30;;;;;;;11.26;77.15;101535.66;5052187;28;20513;-77
2022/05/30 07:59:36;;;;;;;4.35;1.10;;;;;;;11.34;75.82;101532.34;5052206;28;20361;-79
2022/05/30 08:02:03;;;;;;;10.27;1.40;;;;;;;11.54;75.94;101538.66;5052096;28;20021;-79
2022/05/30 08:04:28;;;;;;;3.83;1.20;;;;;;;11.62;72.41;101536.22;5050785;28;20511;-79
2022/05/30 08:06:54;;;;;;;3.40;1.20;;;;;;;11.75;73.40;101526.22;5052311;28;20121;-79
2022/05/30 08:09:19;;;;;;;5.13;1.10;;;;;;;11.82;71.75;101532.72;5052178;28;20462;-78
2022/05/30 08:11:44;;;;;;;3.20;1.00;;;;;;;11.90;70.50;101532.06;5052023;28;20397;-77
2022/05/30 08:14:10;;;;;;;5.22;1.05;;;;;;;11.99;69.58;101528.63;5052174;28;20040;-78
2022/05/30 08:16:37;;;;;;;8.48;1.50;;;;;;;12.01;68.66;101525.84;5051962;28;20033;-78
2022/05/30 08:19:07;;;;;;;4.63;0.90;;;;;;;12.10;66.90;101525.03;5051609;28;20094;-76
2022/05/30 08:21:33;;;;;;;3.55;1.20;;;;;;;12.09;65.28;101530.50;5051850;28;20032;-80
2022/05/30 08:23:58;;;;;;;3.38;1.23;;;;;;;12.19;66.29;101527.91;5051003;28;20041;-79
2022/05/30 08:26:24;;;;;;;4.72;1.13;;;;;;;12.33;64.73;101525.72;5052279;28;20510;-80
2022/05/30 08:28:49;;;;;;;4.03;0.95;;;;;;;12.59;64.00;101525.25;5052183;28;20029;-79
2022/05/30 08:31:16;;;;;;;2.35;0.85;;;;;;;13.01;63.36;101529.59;5052674;28;20550;-79
2022/05/30 08:33:42;;;;;;;2.35;0.90;;;;;;;13.27;59.61;101539.72;5051046;28;20461;-79
2022/05/30 08:36:11;;;;;;;2.38;1.17;;;;;;;13.71;58.82;101537.50;5052163;28;20040;-78
2022/05/30 08:38:37;;;;;;;4.00;1.05;;;;;;;14.22;55.00;101533.56;5051856;28;20078;-78
2022/05/30 08:43:55;;;;;;;2.85;0.93;;;;;;;15.46;53.66;101541.19;5051862;28;20504;-79
2022/05/30 08:46:36;;;;;;;2.55;1.05;;;;;;;16.95;52.17;101539.44;5051953;28;20039;-78
2022/05/30 08:49:02;;;;;;;2.22;0.90;;;;;;;17.63;47.53;101535.66;5050754;28;20111;-79
2022/05/30 08:52:19;;;;;;;0.95;0.65;;;;;;;17.09;45.86;101545.03;5052479;28;20369;-79
2022/05/30 08:54:58;;;;;;;3.10;1.10;;;;;;;16.64;46.76;101538.13;5033876;28;20124;-80
2022/05/30 08:57:23;;;;;;;3.60;1.20;;;;;;;16.44;48.16;101534.03;5052167;28;20059;-80
2022/05/30 09:00:07;;;;;;;5.07;1.20;;;;;;;16.58;48.08;101538.78;5051800;28;20484;-80
2022/05/30 09:02:47;;;;;;;4.43;0.90;;;;;;;16.36;51.67;101551.78;5051558;28;20025;-79
2022/05/30 09:05:37;;;;;;;2.50;0.90;;;;;;;15.61;50.90;101551.38;5052636;28;20104;-80
2022/05/30 09:08:07;;;;;;;3.05;1.00;;;;;;;14.87;52.88;101545.28;5055554;28;20033;-76
2022/05/30 09:10:41;;;;;;;1.52;0.68;;;;;;;14.37;52.46;101546.50;5055585;28;20147;-79
2022/05/30 09:13:20;;;;;;;3.28;1.00;;;;;;;14.13;55.86;101545.16;5055250;28;20090;-78
2022/05/30 09:15:57;;;;;;;4.25;0.80;;;;;;;14.16;54.85;101547.53;5055267;28;20104;-80
2022/05/30 09:18:30;;;;;;;3.10;1.00;;;;;;;14.68;52.56;101546.25;5055349;28;20127;-79
2022/05/30 09:20:55;;;;;;;4.63;1.00;;;;;;;15.47;49.65;101555.47;5055288;28;20040;-79
2022/05/30 09:23:24;;;;;;;2.03;0.82;;;;;;;17.38;46.69;101550.94;5055016;28;20029;-78
2022/05/30 09:25:56;;;;;;;6.47;0.93;;;;;;;18.42;40.98;101546.66;5055021;28;20100;-79
2022/05/30 09:28:28;;;;;;;4.47;1.15;;;;;;;18.19;42.01;101548.41;5054907;28;20035;-78
2022/05/30 09:31:21;;;;;;;13.52;1.13;;;;;;;18.55;45.79;101543.38;5055332;28;20354;-78
2022/05/30 09:34:00;;;;;;;1.92;0.95;;;;;;;18.54;44.83;101544.41;5055722;28;20028;-77
2022/05/30 09:36:31;;;;;;;3.88;1.20;;;;;;;17.90;43.35;101557.84;5055082;28;20112;-78
2022/05/30 09:39:06;;;;;;;3.05;0.82;;;;;;;17.08;45.54;101554.09;5055124;28;20044;-81
2022/05/30 09:41:38;;;;;;;2.05;0.77;;;;;;;16.30;48.46;101556.94;5054559;28;20135;-79
2022/05/30 09:44:19;;;;;;;4.10;1.08;;;;;;;15.75;49.82;101563.41;5054881;28;20033;-79
2022/05/30 09:46:50;;;;;;;;;;;;;;;15.37;49.67;101558.22;5055869;28;20045;-78
2022/05/30 09:49:37;;;;;;;5.72;1.40;;;;;;;15.09;50.39;101552.94;5054837;28;20369;-79
2022/05/30 09:52:26;;;;;;;4.03;1.00;;;;;;;15.21;50.37;101547.34;5055142;28;20056;-81
2022/05/30 09:54:53;;;;;;;6.05;1.00;;;;;;;15.07;50.47;101554.06;5055097;28;20025;-81
2022/05/30 09:57:23;;;;;;;3.58;0.90;;;;;;;14.74;49.72;101556.38;5054830;28;20025;-80
2022/05/30 09:59:54;;;;;;;1.65;0.93;;;;;;;14.43;51.67;101560.13;5055864;28;20033;-81
2022/05/30 10:02:37;;;;;;;8.32;2.15;;;;;;;14.38;51.37;101561.56;5055602;28;20039;-80
2022/05/30 10:05:26;;;;;;;4.32;0.95;;;;;;;14.25;52.32;101556.53;5056388;28;20115;-81
2022/05/30 10:07:52;;;;;;;6.45;1.13;;;;;;;14.08;52.79;101550.13;5055413;28;20136;-80
2022/05/30 10:10:24;;;;;;;4.28;1.27;;;;;;;13.93;53.64;101550.56;5056986;28;20024;-80
2022/05/30 10:12:59;;;;;;;6.30;1.10;;;;;;;13.71;52.76;101550.88;5055770;28;20035;-83
2022/05/30 10:15:33;;;;;;;3.38;1.17;;;;;;;13.64;54.28;101553.25;5054962;28;20457;-78
2022/05/30 10:18:14;;;;;;;3.30;1.13;;;;;;;13.57;53.30;101553.00;5054419;28;20086;-82
2022/05/30 10:21:03;;;;;;;4.07;1.08;;;;;;;13.49;53.42;101554.69;5054401;28;20020;-80
2022/05/30 10:29:40;;;;;;;3.50;0.80;;;;;;;13.26;56.75;101570.97;5054432;28;20154;-74
2022/05/30 10:32:40;;;;;;;2.97;1.05;;;;;;;13.15;54.51;101568.41;5054444;28;20025;-78
2022/05/30 10:35:34;;;;;;;3.40;0.80;;;;;;;12.96;53.21;101566.56;5053397;28;20082;-79
2022/05/30 10:38:15;;;;;;;5.05;1.00;;;;;;;12.87;56.56;101570.88;5053683;28;20025;-84
2022/05/30 10:41:09;;;;;;;4.67;0.80;;;;;;;12.95;58.18;101576.38;5053972;28;20029;-79
2022/05/30 10:43:56;;;;;;;3.42;0.90;;;;;;;12.91;53.83;101574.13;5053682;28;20346;-77
2022/05/30 10:46:36;;;;;;;1.80;0.80;;;;;;;12.92;52.29;101573.97;5054319;28;20033;-77
2022/05/30 10:49:08;;;;;;;4.75;1.15;;;;;;;12.99;53.57;101580.47;5053876;28;20025;-80
2022/05/30 10:51:48;;;;;;;2.45;1.00;;;;;;;13.28;52.61;101577.00;5053880;28;20086;-77
2022/05/30 10:54:23;;;;;;;4.10;0.90;;;;;;;13.64;50.88;101574.66;5053627;28;20053;-77
2022/05/30 10:56:52;;;;;;;7.32;1.10;;;;;;;14.01;49.88;101579.28;5054286;28;20082;-76
2022/05/30 10:59:36;;;;;;;4.57;1.10;;;;;;;14.44;49.06;101577.88;5054172;28;20082;-76
2022/05/30 11:02:23;;;;;;;8.13;1.15;;;;;;;15.05;48.48;101572.97;5053448;28;20037;-76
2022/05/30 11:05:14;;;;;;;2.35;0.73;;;;;;;15.85;43.94;101574.91;5053446;28;20029;-76
2022/05/30 11:07:40;;;;;;;;;;;;;;;16.51;46.13;101578.88;5053778;28;20021;-76
2022/05/30 11:10:20;;;;;;;1.77;0.80;;;;;;;16.79;44.50;101575.13;5053319;28;20324;-77
2022/05/30 11:12:52;;;;;;;3.03;0.73;;;;;;;16.81;45.34;101571.28;5053657;28;20082;-76
2022/05/30 11:15:32;;;;;;;1.98;0.93;;;;;;;16.53;46.20;101579.53;5052839;28;20090;-76
2022/05/30 11:18:04;;;;;;;2.88;0.90;;;;;;;16.11;45.91;101572.25;5053592;28;20029;-76
2022/05/30 11:20:51;;;;;;;4.32;0.80;;;;;;;15.37;44.36;101579.66;5053249;28;20025;-76
2022/05/30 11:23:18;;;;;;;4.10;1.23;;;;;;;14.84;46.78;101575.06;5051522;28;20444;-77
2022/05/30 11:26:08;;;;;;;2.05;0.70;;;;;;;14.57;49.16;101577.56;5052967;28;20153;-76
2022/05/30 11:29:21;;;;;;;2.75;0.80;;;;;;;14.41;47.39;101572.00;5052127;28;20028;-75
2022/05/30 11:31:58;;;;;;;2.20;0.90;;;;;;;14.41;49.82;101572.00;5047532;28;20128;-76
2022/05/30 11:35:00;;;;;;;4.15;1.20;;;;;;;14.44;47.53;101569.03;5053097;28;20029;-75
2022/05/30 11:37:25;;;;;;;2.33;1.35;;;;;;;14.39;46.31;101571.28;5052883;28;20032;-77
2022/05/30 11:40:24;;;;;;;1.15;0.70;;;;;;;14.13;47.42;101573.75;5052970;28;20326;-77
2022/05/30 11:43:15;;;;;;;2.15;0.85;;;;;;;14.14;51.14;101570.06;5044932;28;20045;-75
2022/05/30 11:46:02;;;;;;;5.13;1.20;;;;;;;14.42;50.40;101569.16;5052506;28;20044;-76
2022/05/30 11:48:30;;;;;;;3.03;1.00;;;;;;;14.97;50.73;101568.38;5052880;28;20045;-75
2022/05/30 11:51:06;;;;;;;6.07;1.00;;;;;;;16.25;46.75;101572.69;5052745;28;20107;-76
2022/05/30 11:54:08;;;;;;;3.60;1.10;;;;;;;17.59;44.19;101572.81;5053057;28;20021;-77
2022/05/30 11:56:47;;;;;;;2.60;1.00;;;;;;;19.69;40.61;101575.25;5052754;28;20135;-76
2022/05/30 11:59:37;;;;;;;2.65;0.90;;;;;;;21.47;36.46;101568.94;5052770;28;20029;-76